Latest Weather Observations for Oakey

IDQ60901

Issued at 4:21 pm EST Sunday 11 April 2021 (issued every 10 minutes, with the page automatically refreshed every 10 minutes)

About weather observations | Map of Brisbane area stations | Latest observations for Brisbane area | Other Formats
Station Details ID: 041359 Name: OAKEY AERO Lat: -27.40 Lon: 151.74 Height: 405.69 m
Data from the previous 72 hours. | See also: Recent months at Oakey
Date/Time
EST
Temp
°C
App
Temp
°C
Dew
Point
°C
Rel
Hum
%
Delta-T
°C
Wind Press
QNH
hPa
Press
MSL
hPa
Rain since
9am
mm
Dir  Spd
km/h
Gust
km/h
Spd
kts
Gust
kts
11/04:00pm 23.3 16.9 5.2 31 9.3 WSW 28 37 15 20 1012.2 1010.8 0.0
11/03:30pm 23.8 17.2 6.1 32 9.2 SW 30 39 16 21 1012.0 1010.6 0.0
11/03:00pm 23.8 17.6 6.1 32 9.2 WSW 28 41 15 22 1011.9 1010.5 0.0
11/02:30pm 23.9 17.5 7.1 34 8.9 WSW 30 41 16 22 1011.8 1010.4 0.0
11/02:00pm 24.1 17.5 7.7 35 8.8 SW 32 43 17 23 1011.7 1010.3 0.0
11/01:30pm 24.5 18.8 8.5 36 8.7 SW 28 41 15 22 1011.7 1010.3 0.0
11/01:00pm 24.2 18.4 7.8 35 8.8 SW 28 39 15 21 1011.7 1010.3 0.0
11/12:30pm 24.0 19.1 8.4 37 8.5 SW 24 37 13 20 1012.1 1010.7 0.0
11/12:00pm 23.6 18.4 7.3 35 8.7 SW 24 37 13 20 1012.5 1011.1 0.0
11/11:30am 23.5 17.6 7.6 36 8.5 SW 28 37 15 20 1012.8 1011.4 0.0
11/11:00am 22.9 18.9 9.0 41 7.6 SW 20 28 11 15 1013.3 1011.9 0.0
11/10:30am 22.0 17.9 8.5 42 7.3 SW 20 24 11 13 1013.7 1012.3 0.0
11/10:00am 21.3 16.9 7.5 41 7.3 SW 20 28 11 15 1013.9 1012.5 0.0
11/09:30am 20.2 16.9 9.7 51 5.7 SW 17 26 9 14 1014.0 1012.6 0.0
11/09:00am 18.7 17.4 12.5 67 3.5 WSW 11 19 6 10 1014.0 1012.6 0.0
11/08:30am 17.1 15.3 13.2 78 2.2 WSW 15 19 8 10 1014.0 1012.6 0.0
11/08:00am 15.9 15.6 14.4 91 0.9 WSW 9 11 5 6 1013.7 1012.3 0.0
11/07:30am 15.2 14.2 13.4 89 1.0 W 11 13 6 7 1013.3 1011.9 0.0
11/07:00am 14.0 15.1 13.5 97 0.3 CALM 0 0 0 0 1012.7 1011.3 0.0
11/06:30am 13.4 13.2 12.9 97 0.3 S 6 7 3 4 1012.3 1010.9 0.0
11/06:00am 13.0 13.8 12.5 97 0.3 CALM 0 0 0 0 1012.2 1010.8 0.0
11/05:30am 12.5 11.8 11.9 96 0.3 NNE 7 7 4 4 1011.7 1010.3 0.0
11/05:00am 12.4 12.9 11.5 94 0.5 CALM 0 0 0 0 1011.4 1010.0 0.0
11/04:30am 12.7 12.5 11.9 95 0.4 ENE 4 6 2 3 1011.0 1009.6 0.0
11/04:00am 12.5 12.9 11.1 91 0.8 CALM 0 0 0 0 1010.7 1009.2 0.0
11/03:30am 13.8 14.6 12.7 93 0.6 CALM 0 0 0 0 1010.5 1009.0 0.0
11/03:00am 14.3 14.3 13.5 95 0.5 NE 6 6 3 3 1010.2 1008.8 0.0
11/02:30am 14.2 13.9 13.4 95 0.5 ENE 7 9 4 5 1010.4 1008.9 0.0
11/02:00am 14.1 15.1 13.3 95 0.5 CALM 0 0 0 0 1010.6 1009.1 0.0
11/01:30am 13.0 12.9 12.1 94 0.5 E 4 6 2 3 1010.9 1009.5 0.0
11/01:00am 13.1 12.5 12.2 94 0.5 NE 7 9 4 5 1011.0 1009.6 0.0
11/12:30am 13.3 12.6 12.0 92 0.7 ENE 7 9 4 5 1011.1 1009.7 0.0
11/12:00am 13.2 12.6 11.6 90 0.9 E 6 7 3 4 1011.3 1009.9 0.0
 
Date/Time
EST
Temp
°C
App
Temp
°C
Dew
Point
°C
Rel
Hum
%
Delta-T
°C
Wind Press
QNH
hPa
Press
MSL
hPa
Rain since
9am
mm
Dir  Spd
km/h
Gust
km/h
Spd
kts
Gust
kts
10/11:30pm 13.7 13.2 11.9 89 1.0 ESE 6 7 3 4 1011.1 1009.7 0.0
10/11:00pm 14.3 13.8 12.5 89 1.0 ESE 7 7 4 4 1010.9 1009.5 0.0
10/10:30pm 14.4 13.8 12.4 88 1.1 E 7 9 4 5 1010.8 1009.4 0.0
10/10:00pm 14.5 13.8 12.0 85 1.4 E 7 9 4 5 1011.0 1009.6 0.0
10/09:30pm 15.0 14.0 12.3 84 1.5 ESE 9 11 5 6 1010.9 1009.5 0.0
10/09:00pm 15.4 14.4 12.3 82 1.7 ENE 9 20 5 11 1011.1 1009.7 0.0
10/08:30pm 16.6 16.5 13.3 81 1.9 NE 6 7 3 4 1010.9 1009.5 0.0
10/08:00pm 16.5 15.5 12.3 76 2.4 N 9 11 5 6 1010.7 1009.2 0.0
10/07:30pm 18.3 19.3 13.2 72 2.9 CALM 0 0 0 0 1010.4 1008.9 0.0
10/07:00pm 19.9 20.5 11.9 60 4.5 CALM 0 0 0 0 1009.8 1008.4 0.0
10/06:30pm 21.7 20.6 10.8 50 6.1 S 7 9 4 5 1009.8 1008.4 0.0
10/06:00pm 22.7 20.8 10.5 46 6.8 S 11 13 6 7 1009.5 1008.1 0.0
10/05:30pm 24.8 22.4 9.9 39 8.3 SSW 13 17 7 9 1009.2 1007.8 0.0
10/05:00pm 26.6 23.4 9.9 35 9.5 SSW 17 22 9 12 1009.0 1007.6 0.0
10/04:30pm 27.5 23.8 9.3 32 10.2 SSW 19 24 10 13 1008.8 1007.4 0.0
10/04:00pm 28.2 24.2 9.0 30 10.8 SSW 20 32 11 17 1008.4 1006.9 0.0
10/03:30pm 28.8 24.8 9.0 29 11.1 SW 20 30 11 16 1008.0 1006.5 0.0
10/03:00pm 29.1 25.2 9.3 29 11.2 SW 20 30 11 16 1007.9 1006.4 0.0
10/02:30pm 28.9 23.6 8.6 28 11.4 WSW 26 33 14 18 1007.9 1006.4 0.0
10/02:00pm 29.3 24.9 10.4 31 10.9 SW 24 33 13 18 1008.1 1006.6 0.0
10/01:30pm 29.1 24.4 10.7 32 10.7 WSW 26 37 14 20 1008.2 1006.7 0.0
10/01:00pm 29.2 25.3 10.8 32 10.7 WSW 22 32 12 17 1008.5 1007.0 0.0
10/12:30pm 29.1 25.2 10.7 32 10.7 W 22 41 12 22 1008.9 1007.5 0.0
10/12:00pm 28.6 25.5 12.1 36 9.8 W 20 33 11 18 1009.3 1007.9 0.0
10/11:30am 28.2 25.1 12.1 37 9.5 W 20 30 11 16 1009.9 1008.5 0.0
10/11:00am 27.3 24.4 12.9 41 8.6 W 20 28 11 15 1010.5 1009.0 0.0
10/10:30am 26.6 23.9 13.0 43 8.1 W 19 28 10 15 1010.9 1009.5 0.0
10/10:00am 25.4 24.6 15.1 53 6.3 W 13 17 7 9 1011.2 1009.8 0.0
10/09:30am 23.7 22.5 14.1 55 5.7 W 13 17 7 9 1011.4 1010.0 0.0
10/09:00am 21.9 22.1 14.3 62 4.5 W 6 11 3 6 1011.4 1010.0 0.0
10/08:30am 19.6 21.0 14.4 72 3.1 CALM 0 0 0 0 1011.4 1010.0 0.0
10/08:00am 17.4 17.5 13.9 80 2.0 ENE 6 7 3 4 1011.1 1009.7 0.0
10/07:30am 15.5 15.4 13.3 87 1.3 ESE 6 7 3 4 1010.9 1009.5 0.0
10/07:00am 13.3 12.8 12.5 95 0.4 SE 7 7 4 4 1010.6 1009.1 0.0
10/06:30am 11.4 10.4 10.9 97 0.3 SE 7 9 4 5 1010.2 1008.8 0.0
10/06:00am 11.1 10.0 10.5 96 0.3 ESE 7 9 4 5 1009.9 1008.5 0.0
10/05:30am 11.3 10.2 10.5 95 0.4 ESE 7 9 4 5 1009.8 1008.4 0.0
10/05:00am 11.5 10.4 10.7 95 0.4 ESE 7 9 4 5 1009.6 1008.2 0.0
10/04:30am 11.7 10.4 11.1 96 0.3 ESE 9 11 5 6 1009.3 1007.9 0.0
10/04:00am 11.9 10.9 11.1 95 0.4 E 7 9 4 5 1009.3 1007.9 0.0
10/03:30am 12.1 11.2 11.3 95 0.4 ESE 7 9 4 5 1009.3 1007.9 0.0
10/03:00am 12.4 11.6 11.6 95 0.4 ESE 7 9 4 5 1009.3 1007.9 0.0
10/02:30am 12.3 11.0 11.4 94 0.5 E 9 13 5 7 1009.4 1008.0 0.0
10/02:00am 12.5 11.3 11.6 94 0.5 E 9 9 5 5 1009.4 1008.0 0.0
10/01:30am 12.5 11.7 11.7 95 0.4 ENE 7 7 4 4 1009.5 1008.1 0.0
10/01:00am 12.9 12.2 12.0 94 0.5 ESE 7 9 4 5 1009.8 1008.4 0.0
10/12:30am 13.1 12.5 12.2 94 0.5 ESE 7 9 4 5 1010.0 1008.6 0.0
10/12:00am 13.3 13.2 12.2 93 0.6 ESE 4 7 2 4 1010.0 1008.6 0.0
 
Date/Time
EST
Temp
°C
App
Temp
°C
Dew
Point
°C
Rel
Hum
%
Delta-T
°C
Wind Press
QNH
hPa
Press
MSL
hPa
Rain since
9am
mm
Dir  Spd
km/h
Gust
km/h
Spd
kts
Gust
kts
09/11:30pm 13.7 13.3 12.4 92 0.7 ESE 6 7 3 4 1010.0 1008.6 0.0
09/11:00pm 13.7 12.6 12.1 90 0.9 E 9 9 5 5 1010.0 1008.6 0.0
09/10:30pm 14.3 13.7 12.3 88 1.1 ESE 7 9 4 5 1010.2 1008.8 0.0
09/10:00pm 14.9 14.4 12.8 87 1.2 E 7 9 4 5 1010.5 1009.0 0.0
09/09:30pm 14.9 14.3 12.4 85 1.4 ENE 7 11 4 6 1010.4 1008.9 0.0
09/09:00pm 15.6 14.7 12.7 83 1.6 NNE 9 9 5 5 1010.2 1008.8 0.0
09/08:30pm 15.7 15.2 12.6 82 1.7 NNW 7 7 4 4 1010.0 1008.6 0.0
09/08:00pm 17.1 16.5 12.2 73 2.8 W 7 9 4 5 1009.8 1008.4 0.0
09/07:30pm 18.4 17.3 11.9 66 3.7 W 9 9 5 5 1009.5 1008.1 0.0
09/07:00pm 20.8 18.3 10.9 53 5.5 SW 15 17 8 9 1009.2 1007.8 0.0
09/06:30pm 20.9 18.2 10.4 51 5.8 SW 15 17 8 9 1008.8 1007.4 0.0
09/06:00pm 22.0 19.4 9.5 45 6.9 SW 13 17 7 9 1008.6 1007.2 0.0
09/05:30pm 24.2 20.5 9.4 39 8.2 SW 19 28 10 15 1008.3 1006.8 0.0
09/05:00pm 26.0 22.2 9.8 36 9.1 SW 20 28 11 15 1007.9 1006.4 0.0
09/04:30pm 27.1 22.9 9.9 34 9.7 SW 22 32 12 17 1007.5 1006.1 0.0
09/04:00pm 26.5 21.9 9.8 35 9.4 SW 24 30 13 16 1007.3 1005.9 0.0
09/03:30pm 27.8 23.6 9.6 32 10.3 SW 22 30 12 16 1007.3 1005.9 0.0
09/03:00pm 27.9 24.2 11.5 36 9.6 WSW 22 30 12 16 1007.4 1006.0 0.0
09/02:30pm 28.1 23.7 10.3 33 10.2 WSW 24 32 13 17 1007.4 1006.0 0.0
09/02:00pm 27.9 24.1 11.0 35 9.8 SW 22 30 12 16 1007.6 1006.2 0.0
09/01:30pm 26.7 22.4 10.8 37 9.1 WSW 24 35 13 19 1008.1 1006.6 0.0
09/01:00pm 27.4 25.8 15.1 47 7.6 SW 17 24 9 13 1008.4 1006.9 0.0
09/12:30pm 26.5 24.1 13.9 45 7.6 SW 19 26 10 14 1008.9 1007.5 0.0
09/12:00pm 26.4 24.1 14.2 47 7.4 SW 19 26 10 14 1009.3 1007.9 0.0
09/11:30am 25.5 23.3 14.3 50 6.8 WSW 19 24 10 13 1009.9 1008.5 0.0
09/11:00am 25.4 24.3 16.3 57 5.7 W 17 24 9 13 1010.7 1009.2 0.0
09/10:30am 24.5 23.5 16.5 61 5.0 W 17 24 9 13 1010.9 1009.5 0.0
09/10:00am 23.0 21.9 16.3 66 4.1 W 17 24 9 13 1011.1 1009.7 0.0
09/09:30am 22.0 21.5 16.9 73 3.2 W 15 22 8 12 1011.2 1009.8 0.0
09/09:00am 20.7 21.3 17.7 83 1.9 W 11 15 6 8 1011.3 1009.9 0.0
09/08:30am 18.9 19.7 16.3 85 1.6 W 7 13 4 7 1011.4 1010.0 0.0
09/08:00am 17.2 18.3 16.6 96 0.4 SW 6 9 3 5 1011.3 1009.9 0.0
09/07:30am 15.8 17.2 15.5 98 0.2 ESE 2 6 1 3 1011.0 1009.6 0.0
09/07:03am 14.5 15.8 14.2 98 0.2 CALM 0 0 0 0 1010.5 1009.0 0.0
09/07:00am 14.3 15.6 14.0 98 0.2 CALM 0 0 0 0 1010.5 1009.0 0.0
09/06:30am 12.2 12.7 11.7 97 0.3 CALM 0 0 0 0 1010.0 1008.6 0.0
09/06:29am 12.2 12.7 11.7 97 0.3 CALM 0 0 0 0 1010.0 1008.6 0.0
09/06:04am 12.1 12.6 11.6 97 0.3 CALM 0 0 0 0 1009.7 1008.3 0.0
09/06:00am 12.2 12.7 11.7 97 0.3 CALM 0 0 0 0 1009.7 1008.3 0.0
09/05:45am 12.5 12.4 12.0 97 0.3 NNE 4 6 2 3 1009.5 1008.1 0.0
09/05:30am 12.7 12.2 12.2 97 0.3 NNE 6 7 3 4 1009.4 1008.0 0.0
09/05:01am 12.7 13.4 12.2 97 0.3 CALM 0 0 0 0 1009.3 1007.9 0.0
09/05:00am 12.8 13.5 12.3 97 0.3 CALM 0 0 0 0 1009.3 1007.9 0.0
09/04:38am 13.0 13.8 12.5 97 0.3 CALM 0 0 0 0 1009.3 1007.9 0.0
09/04:33am 13.1 13.9 12.6 97 0.3 CALM 0 0 0 0 1009.3 1007.9 0.0
09/04:30am 13.3 14.2 12.8 97 0.3 CALM 0 0 0 0 1009.2 1007.8 0.0
09/04:00am 13.4 14.3 12.9 97 0.3 CALM 0 0 0 0 1009.3 1007.9 0.0
09/03:33am 13.6 13.5 13.3 98 0.2 SE 6 7 3 4 1009.1 1007.7 0.0
09/03:30am 14.1 14.1 13.6 97 0.3 SE 6 7 3 4 1009.1 1007.7 0.0
09/03:00am 13.9 13.3 13.4 97 0.3 SE 9 9 5 5 1009.4 1008.0 0.0
09/02:30am 14.4 15.3 13.9 97 0.3 E 2 7 1 4 1009.5 1008.1 0.0
09/02:00am 14.7 14.9 14.2 97 0.3 E 6 7 3 4 1009.4 1008.0 0.0
09/01:30am 14.5 13.7 14.0 97 0.3 ESE 11 11 6 6 1009.6 1008.2 0.0
09/01:00am 15.2 15.0 14.7 97 0.3 ESE 9 11 5 6 1009.8 1008.4 0.0
09/12:30am 15.2 14.6 14.7 97 0.3 ESE 11 13 6 7 1009.7 1008.3 0.0
09/12:00am 15.2 14.2 14.6 96 0.3 E 13 15 7 8 1009.9 1008.5 0.0
 
Date/Time
EST
Temp
°C
App
Temp
°C
Dew
Point
°C
Rel
Hum
%
Delta-T
°C
Wind Press
QNH
hPa
Press
MSL
hPa
Rain since
9am
mm
Dir  Spd
km/h
Gust
km/h
Spd
kts
Gust
kts
08/11:30pm 15.9 16.5 15.3 96 0.4 ENE 6 7 3 4 1009.9 1008.5 0.0
08/11:00pm 15.8 15.7 15.0 95 0.5 NE 9 11 5 6 1010.4 1008.9 0.0
08/10:30pm 16.2 16.5 14.9 92 0.8 NE 7 11 4 6 1010.5 1009.0 0.0
08/10:00pm 17.4 19.3 15.7 90 1.0 CALM 0 0 0 0 1010.7 1009.2 0.0
08/09:30pm 18.0 17.6 16.3 90 1.0 S 13 20 7 11 1010.7 1009.2 0.0
08/09:00pm 18.7 19.5 16.3 86 1.5 ENE 7 11 4 6 1010.4 1008.9 0.0
08/08:30pm 18.1 18.6 15.5 85 1.6 E 7 9 4 5 1010.4 1008.9 0.0
08/08:00pm 18.7 19.1 16.3 86 1.5 ESE 9 11 5 6 1010.0 1008.6 0.0
08/07:30pm 18.9 20.4 15.6 81 2.0 E 2 13 1 7 1009.6 1008.2 0.0
08/07:00pm 20.2 20.6 15.2 73 3.0 SSE 7 7 4 4 1009.1 1007.7 0.0
08/06:30pm 21.3 21.9 15.8 71 3.4 SSE 7 9 4 5 1008.9 1007.5 0.0
08/06:00pm 21.4 21.6 15.7 70 3.5 SSE 9 11 5 6 1008.7 1007.3 0.0
08/05:30pm 22.6 22.3 15.4 64 4.4 SSE 11 13 6 7 1008.5 1007.0 0.0
08/05:00pm 24.9 24.2 15.5 56 5.8 SSE 13 19 7 10 1008.2 1006.7 0.0
08/04:30pm 25.3 23.9 14.4 50 6.6 S 15 20 8 11 1008.0 1006.5 0.0

Latest Capital City Observations: Canberra | Sydney | Melbourne | Brisbane | Adelaide | Perth | Hobart | Darwin

Other formats

Comma delimited format used in spreadsheet applications
http://www.bom.gov.au/fwo/IDQ60901/IDQ60901.94552.axf

JavaScript Object Notation format (JSON) in row-major order
http://www.bom.gov.au/fwo/IDQ60901/IDQ60901.94552.json

Data quality

Most of these data are generated automatically and are frequently updated. Quality checks on data are not normally performed. It is possible for incorrect values to appear. Refer to information at About Latest Weather Observations and please check the disclaimer before using these data.